Nearby METAR Reports

 

EDNY - Friedrichshafen, Germany
Distance from station: ONO 32km
aktuell: 08/08/2022 08:50
klar
klar
 Wind von NO
Wind: NO 13 km/h
Temperatur: 17°C
Taupunkt: 12°C
Luftfeuchte: 73%
Luftdruck: 1021 hPa
Zusammenfassung: klar
Visibility: greater than 10 km
2022/08/08 06:50 EDNY 080650Z 04007KT CAVOK 17/12 Q1021
LSZR - Rheineck/Altenrh, Switzerland
Distance from station: OSO 37km
aktuell: 08/08/2022 08:50
teilweise bewlkt
teilweise bewlkt
 Wind von W
Wind: W 9 km/h
Temperatur: 18°C
Taupunkt: 15°C
Luftfeuchte: 83%
Luftdruck: 1022 hPa
Clouds: teilweise bewlkt
Visibility: 10 km
Cloud details: Few Clouds 549 m
teilweise bewlkt 914 m
2022/08/08 06:50 LSZR 080650Z 27005KT 9999 FEW018 SCT030 18/15 Q1022 RMK D
LSMD - Dubendorf, Switzerland
Distance from station: SW 40km
aktuell: 08/08/2022 08:50
klar
klar
 Wind von varies
Wind: varies 4 km/h
Temperatur: 18°C
Taupunkt: 14°C
Luftfeuchte: 78%
Luftdruck: 1022 hPa
Zusammenfassung: klar
Visibility: greater than 10 km
2022/08/08 06:50 LSMD 080650Z VRB02KT CAVOK 18/14 Q1022 RMK BLU
 
LSZH - Zurich-Kloten (a, Switzerland
Distance from station: WSW 44km
aktuell: 08/08/2022 08:50
klar
klar
 Wind von varies
Wind: varies 4 km/h
Temperatur: 18°C
Taupunkt: 12°C
Luftfeuchte: 68%
Luftdruck: 1022 hPa
Zusammenfassung: klar
Visibility: greater than 10 km
2022/08/08 06:50 LSZH 080650Z VRB02KT CAVOK 18/12 Q1022 NOSIG
LSME - Emmen, Switzerland
Distance from station: SW 82km
aktuell: 08/08/2022 08:50
stark bewlkt
stark bewlkt
 Wind von calm
Wind: Windstill
Temperatur: 18°C
Taupunkt: 18°C
Luftfeuchte: 100%
Luftdruck: 1021 hPa
Clouds: stark bewlkt
Visibility: 10 km
Cloud details: stark bewlkt 457 m
2022/08/08 06:50 LSME 080650Z AUTO 00000KT 9999NDV BKN015 18/18 Q1021 RMK
LSZC - Buochs, Switzerland
Distance from station: SW 89km
aktuell: 08/08/2022 08:50
stark bewlkt
stark bewlkt
 Wind von varies
Wind: varies 2 km/h
Temperatur: 18°C
Taupunkt: 16°C
Luftfeuchte: 88%
Luftdruck: 1021 hPa
Clouds: stark bewlkt
Visibility: 10 km
Cloud details: stark bewlkt 549 m
2022/08/08 06:50 LSZC 080650Z VRB01KT 9999 BKN018 18/16 Q1021
 
ETHL - Laupheim (ger-Ar, Germany
Distance from station: NO 92km
aktuell: 08/08/2022 08:20
Few Clouds
Few Clouds
 Wind von ONO
Wind: ONO 6 km/h
Temperatur: 16°C
Taupunkt: 11°C
Luftfeuchte: 72%
Luftdruck: 1022 hPa
Clouds: Few Clouds
Visibility: 10 km
Cloud details: Few Clouds 9144 m
2022/08/08 06:20 ETHL 080620Z 06003KT 9999 FEW300 16/11 Q1022 BLU+BLU+
EDJA - Memmingen Allgau, Germany
Distance from station: ONO 95km
aktuell: 08/08/2022 08:50
klar
klar
 Wind von NO
Wind: NO 11 km/h
Temperatur: 17°C
Taupunkt: 13°C
Luftfeuchte: 77%
Luftdruck: 1021 hPa
Zusammenfassung: klar
Visibility: greater than 10 km
2022/08/08 06:50 EDJA 080650Z 04006KT CAVOK 17/13 Q1021
LSMA - Alpnach, Switzerland
Distance from station: SW 95km
aktuell: 08/08/2022 08:50
geschlossene Wolkendecke
geschlossene Wolkendecke
 Wind von ONO
Wind: ONO 11 km/h
Temperatur: 18°C
Taupunkt: 15°C
Luftfeuchte: 83%
Luftdruck: 1021 hPa
Clouds: geschlossene Wolkendecke
Visibility: 10 km
Cloud details: teilweise bewlkt 305 m
stark bewlkt 762 m
geschlossene Wolkendecke 914 m
2022/08/08 06:50 LSMA 080650Z 06006KT 030V110 9999 SCT010 BKN025 OVC030 18/15 Q1021 RMK BLU